Time;durP1;ratioP1;P1;durP2;ratioP2;P2;SDS_P1;SDS_P2;PMS_P1;PMS_P2;Temp;Humidity;BMP_temperature;BMP_pressure;BME280_temperature;BME280_humidity;BME280_pressure;Samples;Min_cycle;Max_cycle;Signal;HPM_P1;HPM_P2
2023/04/08 00:01:15;;;;;;;5.60;3.95;;;;;;;;;;5049980;28;20045;-68
2023/04/08 00:03:41;;;;;;;6.07;4.47;;;;;;;;;;5057288;28;20045;-68
2023/04/08 00:06:07;;;;;;;6.90;4.20;;;;;;;;;;5055308;28;20041;-68
2023/04/08 00:08:33;;;;;;;8.77;4.72;;;;;;;;;;5034875;28;20115;-68
2023/04/08 00:11:00;;;;;;;6.47;4.70;;;;;;;;;;5052030;28;20597;-68
2023/04/08 00:13:26;;;;;;;6.30;4.80;;;;;;;;;;5054173;28;20049;-68
2023/04/08 00:15:52;;;;;;;7.90;5.40;;;;;;;;;;5050428;28;20033;-68
2023/04/08 00:18:18;;;;;;;6.60;4.78;;;;;;;;;;5051923;28;20036;-68
2023/04/08 00:20:45;;;;;;;6.75;4.80;;;;;;;;;;5053596;28;20624;-68
2023/04/08 00:23:11;;;;;;;6.60;4.45;;;;;;;;;;5017359;28;20127;-68
2023/04/08 00:25:37;;;;;;;7.80;4.38;;;;;;;;;;5047972;28;20165;-68
2023/04/08 00:28:03;;;;;;;8.30;4.75;;;;;;;;;;5032882;28;20554;-68
2023/04/08 00:30:30;;;;;;;6.78;4.70;;;;;;;;;;5052006;28;20501;-68
2023/04/08 00:32:56;;;;;;;6.50;4.68;;;;;;;;;;5036773;28;20071;-68
2023/04/08 00:35:23;;;;;;;6.40;4.65;;;;;;;;;;5051740;28;20048;-68
2023/04/08 00:37:50;;;;;;;7.13;4.78;;;;;;;;;;5032635;28;20412;-68
2023/04/08 00:40:16;;;;;;;9.55;5.07;;;;;;;;;;5051345;28;20097;-69
2023/04/08 00:42:42;;;;;;;13.00;5.55;;;;;;;;;;5034233;28;20103;-68
2023/04/08 00:45:09;;;;;;;8.60;5.55;;;;;;;;;;5050545;28;20695;-68
2023/04/08 00:47:35;;;;;;;8.27;4.90;;;;;;;;;;5037355;28;20112;-68
2023/04/08 00:50:02;;;;;;;7.80;6.10;;;;;;;;;;5053116;28;20029;-68
2023/04/08 00:52:29;;;;;;;9.40;6.50;;;;;;;;;;5054499;28;20088;-69
2023/04/08 00:54:55;;;;;;;9.55;5.90;;;;;;;;;;5030879;28;20155;-67
2023/04/08 00:57:21;;;;;;;9.15;6.25;;;;;;;;;;5049185;28;20495;-67
2023/04/08 00:59:49;;;;;;;9.32;5.82;;;;;;;;;;5029233;28;20045;-67
2023/04/08 01:02:34;;;;;;;8.82;6.63;;;;;;;;;;5035413;28;20036;-66
2023/04/08 01:05:04;;;;;;;9.52;6.35;;;;;;;;;;5051439;28;20032;-68
2023/04/08 01:07:32;;;;;;;10.65;6.90;;;;;;;;;;5053029;28;20051;-67
2023/04/08 01:10:01;;;;;;;12.38;7.28;;;;;;;;;;5035514;28;20041;-67
2023/04/08 01:12:31;;;;;;;8.93;6.82;;;;;;;;;;5016327;28;20052;-68
2023/04/08 01:15:04;;;;;;;12.75;7.40;;;;;;;;;;5046176;28;20406;-68
2023/04/08 01:17:30;;;;;;;11.02;7.32;;;;;;;;;;5028018;28;20121;-68
2023/04/08 01:19:58;;;;;;;10.75;7.68;;;;;;;;;;5029637;28;20072;-68
2023/04/08 01:22:39;;;;;;;9.32;7.45;;;;;;;;;;5044135;28;20040;-68
2023/04/08 01:25:08;;;;;;;12.52;8.20;;;;;;;;;;5051481;28;20124;-68
2023/04/08 01:27:35;;;;;;;11.07;6.80;;;;;;;;;;5054418;28;20138;-68
2023/04/08 01:30:03;;;;;;;11.60;7.63;;;;;;;;;;5050593;28;20043;-68
2023/04/08 01:32:30;;;;;;;11.40;7.90;;;;;;;;;;5050505;28;20451;-68
2023/04/08 01:34:56;;;;;;;10.88;7.82;;;;;;;;;;5050222;28;20062;-68
2023/04/08 01:37:23;;;;;;;11.98;8.05;;;;;;;;;;5033098;28;20434;-68
2023/04/08 01:39:49;;;;;;;12.75;8.23;;;;;;;;;;5044812;28;20120;-68
2023/04/08 01:42:16;;;;;;;12.43;7.78;;;;;;;;;;5050104;28;20421;-68
2023/04/08 01:44:42;;;;;;;11.90;8.80;;;;;;;;;;5044334;28;20037;-68
2023/04/08 01:47:10;;;;;;;11.05;8.73;;;;;;;;;;5050520;28;20422;-69
2023/04/08 01:49:36;;;;;;;11.18;8.52;;;;;;;;;;5036525;28;20462;-68
2023/04/08 01:52:03;;;;;;;11.95;7.93;;;;;;;;;;5036183;28;20094;-68
2023/04/08 01:54:29;;;;;;;13.10;7.90;;;;;;;;;;5030354;28;20075;-68
2023/04/08 01:56:56;;;;;;;12.55;8.75;;;;;;;;;;5047827;28;20481;-67
2023/04/08 01:59:24;;;;;;;13.63;8.43;;;;;;;;;;5051499;28;20045;-67
2023/04/08 02:01:51;;;;;;;17.45;12.02;;;;;;;;;;5034591;28;20045;-67
2023/04/08 02:04:17;;;;;;;14.13;9.43;;;;;;;;;;5049596;28;20097;-67
2023/04/08 02:06:43;;;;;;;16.13;9.13;;;;;;;;;;5033985;28;20128;-67
2023/04/08 02:09:10;;;;;;;15.30;9.77;;;;;;;;;;5051641;28;20101;-67
2023/04/08 02:11:36;;;;;;;15.00;9.02;;;;;;;;;;5033639;28;20053;-67
2023/04/08 02:14:02;;;;;;;12.80;8.75;;;;;;;;;;5052313;28;20120;-68
2023/04/08 02:16:28;;;;;;;14.90;9.88;;;;;;;;;;5032467;28;20136;-67
2023/04/08 02:19:15;;;;;;;13.95;9.65;;;;;;;;;;5030988;28;20126;-67
2023/04/08 02:21:46;;;;;;;14.98;9.13;;;;;;;;;;5041681;28;20041;-68
2023/04/08 02:24:13;;;;;;;19.77;9.85;;;;;;;;;;5050760;28;20109;-67
2023/04/08 02:26:40;;;;;;;13.73;9.52;;;;;;;;;;5053784;28;20159;-67
2023/04/08 02:29:07;;;;;;;15.30;10.20;;;;;;;;;;5030600;28;20036;-67
2023/04/08 02:31:34;;;;;;;14.20;9.82;;;;;;;;;;5049096;28;20086;-67
2023/04/08 02:34:00;;;;;;;19.17;9.85;;;;;;;;;;5043702;28;20042;-67
2023/04/08 02:36:26;;;;;;;14.75;10.10;;;;;;;;;;5035429;28;20033;-67
2023/04/08 02:38:52;;;;;;;16.10;10.40;;;;;;;;;;5028597;28;20039;-67
2023/04/08 02:41:20;;;;;;;14.70;9.65;;;;;;;;;;5045546;28;20033;-67
2023/04/08 02:43:46;;;;;;;15.80;10.20;;;;;;;;;;5046923;28;20391;-67
2023/04/08 02:46:12;;;;;;;15.65;10.25;;;;;;;;;;5030688;28;20542;-67
2023/04/08 02:48:39;;;;;;;12.95;9.80;;;;;;;;;;5029778;28;20041;-68
2023/04/08 02:51:05;;;;;;;12.95;9.55;;;;;;;;;;5046142;28;20095;-68
2023/04/08 02:53:31;;;;;;;15.05;10.52;;;;;;;;;;5030982;28;20910;-67
2023/04/08 02:55:57;;;;;;;16.77;10.05;;;;;;;;;;5052847;28;20044;-67
2023/04/08 02:58:23;;;;;;;15.75;11.38;;;;;;;;;;5033057;28;20048;-67
2023/04/08 03:00:49;;;;;;;15.98;11.45;;;;;;;;;;5049253;28;20037;-67
2023/04/08 03:03:15;;;;;;;15.73;11.07;;;;;;;;;;5050457;28;20037;-67
2023/04/08 03:05:41;;;;;;;14.40;10.85;;;;;;;;;;5024963;28;20051;-67
2023/04/08 03:08:08;;;;;;;18.60;11.38;;;;;;;;;;5051768;28;20041;-67
2023/04/08 03:10:34;;;;;;;18.13;12.23;;;;;;;;;;5049373;28;20041;-67
2023/04/08 03:13:00;;;;;;;16.67;11.13;;;;;;;;;;5054391;28;20073;-67
2023/04/08 03:15:26;;;;;;;17.88;12.75;;;;;;;;;;5033532;28;20065;-67
2023/04/08 03:17:52;;;;;;;19.88;13.55;;;;;;;;;;5050301;28;20038;-67
2023/04/08 03:20:18;;;;;;;16.42;12.00;;;;;;;;;;5057374;28;20343;-67
2023/04/08 03:22:44;;;;;;;17.38;11.77;;;;;;;;;;5059176;28;20044;-67
2023/04/08 03:25:11;;;;;;;17.05;10.93;;;;;;;;;;5036242;28;20032;-67
2023/04/08 03:27:37;;;;;;;18.48;12.20;;;;;;;;;;5056359;28;20502;-67
2023/04/08 03:30:03;;;;;;;15.90;11.77;;;;;;;;;;5046969;28;20043;-67
2023/04/08 03:32:29;;;;;;;15.27;10.98;;;;;;;;;;5056897;28;20036;-67
2023/04/08 03:34:55;;;;;;;18.35;12.98;;;;;;;;;;5036490;28;20856;-67
2023/04/08 03:37:21;;;;;;;13.70;11.45;;;;;;;;;;5032546;28;20552;-67
2023/04/08 03:39:47;;;;;;;18.48;13.13;;;;;;;;;;5036867;28;20025;-67
2023/04/08 03:42:14;;;;;;;20.20;13.13;;;;;;;;;;5059824;28;20037;-67
2023/04/08 03:44:40;;;;;;;19.77;13.30;;;;;;;;;;5029620;28;20440;-67
2023/04/08 03:47:06;;;;;;;15.80;11.30;;;;;;;;;;5050811;28;20051;-67
2023/04/08 03:49:32;;;;;;;17.75;12.60;;;;;;;;;;5051899;28;20463;-67
2023/04/08 03:51:58;;;;;;;20.17;14.63;;;;;;;;;;5049255;28;20045;-67
2023/04/08 03:54:24;;;;;;;19.83;13.15;;;;;;;;;;5051591;28;20183;-67
2023/04/08 03:56:50;;;;;;;18.40;13.85;;;;;;;;;;5031773;28;20075;-67
2023/04/08 03:59:17;;;;;;;18.70;13.70;;;;;;;;;;5057337;28;20148;-67
2023/04/08 04:01:43;;;;;;;24.50;14.63;;;;;;;;;;5034057;28;20048;-67
2023/04/08 04:04:09;;;;;;;18.85;13.48;;;;;;;;;;5039416;28;20037;-67
2023/04/08 04:06:36;;;;;;;21.40;14.18;;;;;;;;;;5033449;28;20136;-67
2023/04/08 04:09:02;;;;;;;21.75;14.98;;;;;;;;;;5055241;28;20074;-68
2023/04/08 04:11:29;;;;;;;19.38;13.50;;;;;;;;;;5052656;28;20478;-68
2023/04/08 04:13:55;;;;;;;20.23;14.27;;;;;;;;;;5053251;28;20067;-68
2023/04/08 04:16:21;;;;;;;20.23;13.98;;;;;;;;;;5049903;28;20086;-68
2023/04/08 04:18:47;;;;;;;22.80;16.02;;;;;;;;;;5036440;28;20121;-68
2023/04/08 04:21:13;;;;;;;21.60;13.68;;;;;;;;;;5031530;28;20075;-68
2023/04/08 04:23:39;;;;;;;21.90;15.30;;;;;;;;;;5034133;28;20116;-68
2023/04/08 04:26:09;;;;;;;24.33;14.82;;;;;;;;;;5035031;28;20045;-68
2023/04/08 04:28:35;;;;;;;22.17;14.70;;;;;;;;;;5031316;28;20041;-68
2023/04/08 04:31:01;;;;;;;20.95;15.55;;;;;;;;;;5031048;28;20447;-68
2023/04/08 04:33:27;;;;;;;19.80;14.40;;;;;;;;;;5052681;28;20138;-68
2023/04/08 04:35:54;;;;;;;21.30;15.38;;;;;;;;;;5028468;28;20037;-68
2023/04/08 04:38:20;;;;;;;20.23;14.30;;;;;;;;;;5045702;28;20029;-68
2023/04/08 04:40:47;;;;;;;20.40;13.75;;;;;;;;;;5050179;28;20055;-68
2023/04/08 04:43:13;;;;;;;22.83;14.90;;;;;;;;;;5045272;28;20098;-68
2023/04/08 04:45:39;;;;;;;25.05;15.85;;;;;;;;;;5045338;28;20049;-68
2023/04/08 04:48:05;;;;;;;21.33;14.35;;;;;;;;;;5045028;28;20033;-68
2023/04/08 04:50:31;;;;;;;21.02;14.07;;;;;;;;;;5034130;28;20075;-68
2023/04/08 04:52:58;;;;;;;17.83;14.60;;;;;;;;;;5050424;28;20041;-68
2023/04/08 04:55:24;;;;;;;22.20;15.18;;;;;;;;;;5049372;28;20040;-68
2023/04/08 04:57:50;;;;;;;21.10;14.55;;;;;;;;;;5051819;28;20048;-68
2023/04/08 05:00:16;;;;;;;23.10;15.32;;;;;;;;;;5057326;28;20107;-68
2023/04/08 05:02:42;;;;;;;21.83;16.17;;;;;;;;;;5032203;28;20045;-68
2023/04/08 05:05:09;;;;;;;25.23;15.98;;;;;;;;;;5033279;28;20033;-68
2023/04/08 05:07:36;;;;;;;22.00;14.63;;;;;;;;;;5054831;28;20040;-68
2023/04/08 05:10:03;;;;;;;24.27;16.00;;;;;;;;;;5035736;28;20029;-68
2023/04/08 05:12:29;;;;;;;22.85;15.77;;;;;;;;;;5055010;28;20033;-68
2023/04/08 05:14:58;;;;;;;23.90;16.25;;;;;;;;;;5036162;28;20403;-68
2023/04/08 05:17:24;;;;;;;24.05;15.85;;;;;;;;;;5032574;28;20091;-68
2023/04/08 05:19:52;;;;;;;24.90;16.65;;;;;;;;;;5032558;28;20047;-68
2023/04/08 05:22:18;;;;;;;22.20;16.02;;;;;;;;;;5055245;28;20043;-68
2023/04/08 05:24:44;;;;;;;25.55;15.93;;;;;;;;;;5050043;28;20465;-68
2023/04/08 05:27:11;;;;;;;22.55;16.10;;;;;;;;;;5031750;28;20601;-68
2023/04/08 05:29:37;;;;;;;25.70;16.23;;;;;;;;;;5029358;28;20094;-68
2023/04/08 05:32:03;;;;;;;22.52;15.07;;;;;;;;;;5037631;28;20033;-68
2023/04/08 05:34:30;;;;;;;23.25;16.42;;;;;;;;;;5046473;28;20124;-68
2023/04/08 05:36:57;;;;;;;24.38;16.60;;;;;;;;;;5041816;28;20041;-68
2023/04/08 05:39:23;;;;;;;22.33;16.00;;;;;;;;;;5026037;28;20056;-68
2023/04/08 05:41:49;;;;;;;24.63;17.27;;;;;;;;;;5054126;28;20056;-68
2023/04/08 05:44:15;;;;;;;22.88;15.20;;;;;;;;;;5024472;28;20056;-68
2023/04/08 05:46:41;;;;;;;26.45;15.32;;;;;;;;;;5046788;28;20044;-68
2023/04/08 05:49:07;;;;;;;24.42;17.20;;;;;;;;;;5016073;28;20029;-68
2023/04/08 05:51:33;;;;;;;28.27;17.80;;;;;;;;;;5054339;28;20123;-68
2023/04/08 05:54:00;;;;;;;26.13;16.95;;;;;;;;;;5032949;28;20048;-68
2023/04/08 05:56:26;;;;;;;23.55;15.10;;;;;;;;;;5051556;28;20040;-68
2023/04/08 05:58:52;;;;;;;23.60;16.67;;;;;;;;;;5026987;28;20085;-68
2023/04/08 06:01:18;;;;;;;23.70;16.02;;;;;;;;;;5017400;28;20041;-68
2023/04/08 06:03:44;;;;;;;22.13;15.48;;;;;;;;;;5054757;28;20607;-68
2023/04/08 06:06:11;;;;;;;23.88;15.93;;;;;;;;;;5044759;28;20476;-67
2023/04/08 06:08:37;;;;;;;21.42;15.82;;;;;;;;;;5010291;28;20056;-67
2023/04/08 06:11:04;;;;;;;27.58;17.00;;;;;;;;;;5054137;28;20099;-67
2023/04/08 06:13:30;;;;;;;25.58;17.40;;;;;;;;;;5024754;28;20056;-67
2023/04/08 06:15:56;;;;;;;26.02;16.70;;;;;;;;;;5056018;28;20036;-67
2023/04/08 06:18:23;;;;;;;24.52;15.02;;;;;;;;;;5054710;28;20491;-68
2023/04/08 06:20:49;;;;;;;26.23;15.98;;;;;;;;;;5049192;28;20029;-67
2023/04/08 06:23:16;;;;;;;20.58;15.43;;;;;;;;;;5025468;28;20129;-67
2023/04/08 06:25:42;;;;;;;21.83;15.93;;;;;;;;;;5046174;28;20125;-68
2023/04/08 06:28:08;;;;;;;26.10;17.00;;;;;;;;;;5028645;28;20171;-68
2023/04/08 06:30:34;;;;;;;25.45;15.65;;;;;;;;;;5031473;28;20621;-68
2023/04/08 06:33:00;;;;;;;22.80;16.60;;;;;;;;;;5027558;28;20131;-68
2023/04/08 06:35:26;;;;;;;31.08;18.08;;;;;;;;;;5044300;28;20084;-68
2023/04/08 06:37:53;;;;;;;22.55;14.70;;;;;;;;;;5023703;28;20060;-68
2023/04/08 06:40:19;;;;;;;22.75;15.52;;;;;;;;;;5046117;28;20033;-68
2023/04/08 06:42:45;;;;;;;24.70;17.92;;;;;;;;;;5028385;28;20083;-69
2023/04/08 06:45:11;;;;;;;21.67;15.43;;;;;;;;;;5028207;28;20041;-68
2023/04/08 06:47:37;;;;;;;20.92;15.90;;;;;;;;;;5021886;28;20044;-69
2023/04/08 06:50:03;;;;;;;26.10;17.23;;;;;;;;;;5040726;28;20494;-68
2023/04/08 06:52:29;;;;;;;25.52;17.83;;;;;;;;;;5048845;28;20040;-68
2023/04/08 06:54:56;;;;;;;25.52;17.73;;;;;;;;;;5047892;28;20053;-68
2023/04/08 06:57:22;;;;;;;22.67;16.13;;;;;;;;;;5043444;28;20034;-68
2023/04/08 06:59:48;;;;;;;27.70;18.08;;;;;;;;;;5049702;28;20055;-69
2023/04/08 07:02:14;;;;;;;26.77;16.65;;;;;;;;;;5051418;28;20402;-69
2023/04/08 07:04:40;;;;;;;24.15;17.38;;;;;;;;;;5037357;28;20612;-68
2023/04/08 07:07:07;;;;;;;25.98;15.63;;;;;;;;;;5049189;28;20044;-69
2023/04/08 07:09:33;;;;;;;26.40;17.38;;;;;;;;;;5024711;28;20378;-68
2023/04/08 07:11:59;;;;;;;26.38;17.98;;;;;;;;;;5013455;28;20531;-68
2023/04/08 07:14:25;;;;;;;23.67;17.60;;;;;;;;;;5042176;28;20060;-68
2023/04/08 07:16:51;;;;;;;22.75;15.30;;;;;;;;;;5044127;28;20082;-68
2023/04/08 07:19:17;;;;;;;29.10;18.45;;;;;;;;;;5046660;28;20438;-68
2023/04/08 07:21:44;;;;;;;26.10;15.95;;;;;;;;;;5022077;28;20045;-68
2023/04/08 07:24:10;;;;;;;24.73;17.23;;;;;;;;;;5037949;28;20502;-69
2023/04/08 07:26:37;;;;;;;25.27;17.17;;;;;;;;;;5023804;28;20239;-68
2023/04/08 07:29:03;;;;;;;27.73;16.77;;;;;;;;;;5043391;28;20037;-68
2023/04/08 07:31:30;;;;;;;25.02;16.23;;;;;;;;;;5028239;28;20041;-68
2023/04/08 07:33:56;;;;;;;25.90;17.50;;;;;;;;;;5036473;28;20110;-68
2023/04/08 07:36:22;;;;;;;28.02;16.48;;;;;;;;;;5052529;28;20063;-69
2023/04/08 07:38:48;;;;;;;26.65;17.38;;;;;;;;;;5049229;28;20051;-68
2023/04/08 07:41:14;;;;;;;25.88;17.10;;;;;;;;;;5033611;28;20443;-68
2023/04/08 07:43:40;;;;;;;23.52;15.40;;;;;;;;;;5049580;28;20040;-69
2023/04/08 07:46:07;;;;;;;30.55;15.80;;;;;;;;;;5050334;28;20044;-68
2023/04/08 07:48:34;;;;;;;27.48;16.90;;;;;;;;;;5054175;28;20117;-68
2023/04/08 07:51:07;;;;;;;22.88;16.55;;;;;;;;;;5051882;28;20079;-69
2023/04/08 07:53:34;;;;;;;;;;;;;;;;;;5015267;28;20076;-68
2023/04/08 07:56:00;;;;;;;19.88;13.60;;;;;;;;;;5012534;28;20374;-68
2023/04/08 07:58:26;;;;;;;21.52;15.20;;;;;;;;;;5045126;28;20048;-69
2023/04/08 08:00:52;;;;;;;22.52;15.57;;;;;;;;;;5051371;28;20043;-68
2023/04/08 08:03:19;;;;;;;19.40;14.23;;;;;;;;;;5050941;28;20109;-68
2023/04/08 08:05:45;;;;;;;20.67;13.20;;;;;;;;;;5054607;28;20049;-68
2023/04/08 08:08:11;;;;;;;18.45;13.40;;;;;;;;;;5032407;28;20040;-69
2023/04/08 08:10:38;;;;;;;20.30;13.48;;;;;;;;;;5048461;28;20060;-68
2023/04/08 08:13:05;;;;;;;17.70;12.18;;;;;;;;;;5050132;28;20037;-69
2023/04/08 08:15:31;;;;;;;17.55;11.82;;;;;;;;;;5051949;28;20502;-68
2023/04/08 08:17:57;;;;;;;22.23;12.63;;;;;;;;;;5031316;28;20129;-68
2023/04/08 08:20:23;;;;;;;18.30;11.00;;;;;;;;;;5011135;28;20037;-68
2023/04/08 08:22:49;;;;;;;18.05;12.00;;;;;;;;;;5034868;28;20144;-68
2023/04/08 08:25:16;;;;;;;16.08;11.43;;;;;;;;;;5012818;28;20407;-69
2023/04/08 08:27:42;;;;;;;17.98;11.18;;;;;;;;;;5034180;28;20041;-68
2023/04/08 08:30:09;;;;;;;18.25;11.50;;;;;;;;;;5019987;28;20221;-69
2023/04/08 08:32:36;;;;;;;13.00;9.57;;;;;;;;;;5030564;28;20049;-69
2023/04/08 08:35:02;;;;;;;15.90;8.40;;;9.20;99.90;;;;;;5051117;28;20066;-68
2023/04/08 08:37:28;;;;;;;15.40;8.35;;;;;;;;;;5032188;28;20045;-68
2023/04/08 08:39:54;;;;;;;12.50;9.07;;;;;;;;;;5030261;28;20049;-68
2023/04/08 08:42:21;;;;;;;17.25;8.73;;;;;;;;;;5048997;28;20071;-68
2023/04/08 08:44:47;;;;;;;11.32;8.40;;;7.20;99.90;;;;;;5048767;28;20036;-68
2023/04/08 08:47:13;;;;;;;12.00;8.23;;;7.20;99.90;;;;;;5019879;28;20114;-68
2023/04/08 08:49:40;;;;;;;11.70;8.60;;;7.20;99.90;;;;;;5049607;28;20041;-69
2023/04/08 08:52:06;;;;;;;11.80;8.23;;;7.20;99.90;;;;;;5031216;28;20098;-69
2023/04/08 08:54:32;;;;;;;12.73;8.20;;;7.30;99.90;;;;;;5017968;28;20057;-69
2023/04/08 08:56:58;;;;;;;11.48;8.38;;;7.30;99.90;;;;;;5040041;28;20041;-69
2023/04/08 08:59:24;;;;;;;16.70;8.93;;;7.30;99.90;;;;;;5044925;28;20049;-68
2023/04/08 09:01:50;;;;;;;11.68;8.20;;;7.30;99.90;;;;;;5029935;28;20037;-69
2023/04/08 09:04:18;;;;;;;12.98;8.60;;;7.30;99.90;;;;;;5047530;28;20040;-69
2023/04/08 09:06:46;;;;;;;20.08;11.10;;;7.40;99.90;;;;;;5043457;28;20075;-69
2023/04/08 09:09:12;;;;;;;13.60;9.10;;;7.40;99.90;;;;;;5047412;28;20041;-68
2023/04/08 09:11:41;;;;;;;15.88;9.20;;;7.40;99.90;;;;;;5017319;28;20060;-68
2023/04/08 09:14:25;;;;;;;15.48;9.70;;;7.40;99.90;;;;;;5033406;28;20075;-69
2023/04/08 09:16:51;;;;;;;14.90;10.10;;;7.40;99.90;;;;;;5024345;28;20064;-69
2023/04/08 09:19:17;;;;;;;14.23;9.23;;;7.50;99.90;;;;;;5045279;28;20066;-69
2023/04/08 09:21:43;;;;;;;14.32;9.15;;;7.50;99.90;;;;;;5030011;28;20545;-68
2023/04/08 09:24:27;;;;;;;13.75;10.20;;;7.50;99.90;;;;;;5030849;28;20041;-68
2023/04/08 09:26:53;;;;;;;16.17;10.10;;;7.60;99.90;;;;;;5045852;28;20037;-68
2023/04/08 09:29:23;;;;;;;14.40;9.98;;;7.60;99.90;;;;;;5025838;28;20487;-68
2023/04/08 09:31:53;;;;;;;13.73;9.35;;;7.50;99.90;;;;;;5025213;28;20044;-69
2023/04/08 09:34:20;;;;;;;13.55;9.25;;;7.50;99.90;;;;;;5051159;28;20416;-69
2023/04/08 09:36:47;;;;;;;15.63;10.63;;;7.50;99.90;;;;;;5047011;28;20120;-68
2023/04/08 09:39:14;;;;;;;13.57;10.10;;;7.50;99.90;;;;;;5023985;28;20561;-68
2023/04/08 09:41:41;;;;;;;12.85;9.93;;;7.50;99.90;;;;;;5024680;28;20045;-69
2023/04/08 09:44:09;;;;;;;15.35;10.27;;;7.50;99.90;;;;;;5056686;28;20056;-69
2023/04/08 09:46:50;;;;;;;15.10;10.32;;;7.60;99.90;;;;;;5031911;28;20044;-69
2023/04/08 09:49:37;;;;;;;16.33;9.65;;;7.60;99.90;;;;;;5041050;28;20128;-68
2023/04/08 09:52:14;;;;;;;14.88;10.10;;;7.60;99.90;;;;;;5049109;28;20076;-68
2023/04/08 09:54:53;;;;;;;16.80;10.55;;;7.60;99.90;;;;;;5030344;28;20129;-68
2023/04/08 09:57:56;;;;;;;13.98;9.80;;;7.60;99.90;;;;;;5049437;28;20341;-68
2023/04/08 10:00:28;;;;;;;14.80;9.43;;;7.60;99.90;;;;;;5030971;28;20521;-69
2023/04/08 10:03:24;;;;;;;14.73;10.20;;;7.60;99.90;;;;;;5045434;28;20037;-69
2023/04/08 10:05:52;;;;;;;15.10;10.80;;;7.70;99.90;;;;;;5015478;28;20280;-69
2023/04/08 10:08:18;;;;;;;18.75;10.95;;;7.70;99.90;;;;;;5014379;28;20041;-69
2023/04/08 10:10:45;;;;;;;18.00;11.30;;;7.70;99.90;;;;;;5008399;28;20479;-69
2023/04/08 10:13:11;;;;;;;14.85;11.07;;;7.70;99.90;;;;;;5033321;28;20110;-69
2023/04/08 10:15:39;;;;;;;12.40;9.57;;;7.70;99.90;;;;;;5057501;28;20067;-69
2023/04/08 10:18:05;;;;;;;13.38;10.05;;;;;;;;;;5051304;28;20128;-69
2023/04/08 10:20:34;;;;;;;14.95;10.43;;;;;;;;;;5032288;28;20048;-69
2023/04/08 10:23:04;;;;;;;14.60;10.18;;;;;;;;;;5051193;28;20064;-69
2023/04/08 10:25:33;;;;;;;14.15;9.77;;;;;;;;;;5048407;28;20064;-69
2023/04/08 10:28:00;;;;;;;16.58;11.43;;;;;;;;;;5031127;28;20359;-69
2023/04/08 10:30:32;;;;;;;15.63;10.35;;;;;;;;;;5047280;28;20393;-68
2023/04/08 10:32:59;;;;;;;15.45;10.48;;;;;;;;;;5045915;28;20032;-69
2023/04/08 10:35:31;;;;;;;16.77;11.30;;;;;;;;;;5054038;28;20049;-69
2023/04/08 10:37:58;;;;;;;17.38;10.98;;;;;;;;;;5050323;28;20029;-69
2023/04/08 10:40:25;;;;;;;14.00;9.95;;;;;;;;;;5031077;28;20491;-68
2023/04/08 10:42:57;;;;;;;16.30;11.18;;;;;;;;;;5052474;28;20484;-67
2023/04/08 10:45:24;;;;;;;16.63;10.68;;;;;;;;;;5051038;28;20155;-68
2023/04/08 10:47:50;;;;;;;15.88;11.50;;;;;;;;;;5047612;28;20045;-68
2023/04/08 10:50:17;;;;;;;13.10;9.10;;;;;;;;;;5046381;28;20080;-68
2023/04/08 10:52:53;;;;;;;15.13;10.65;;;;;;;;;;5031476;28;20477;-68
2023/04/08 10:55:28;;;;;;;16.27;10.68;;;;;;;;;;5030996;28;20048;-68
2023/04/08 10:57:54;;;;;;;16.63;11.00;;;;;;;;;;5032170;28;20414;-68
2023/04/08 11:00:35;;;;;;;15.23;9.95;;;;;;;;;;4997061;28;20050;-68
2023/04/08 11:03:10;;;;;;;16.52;10.30;;;;;;;;;;5019985;28;20057;-68
2023/04/08 11:05:37;;;;;;;20.30;11.23;;;;;;;;;;5044438;28;20037;-68
2023/04/08 11:08:04;;;;;;;21.67;10.48;;;;;;;;;;5030174;28;20091;-68
2023/04/08 11:10:30;;;;;;;18.00;10.15;;;;;;;;;;5043903;28;20037;-68
2023/04/08 11:12:57;;;;;;;14.38;10.07;;;;;;;;;;5046728;28;20488;-68
2023/04/08 11:15:24;;;;;;;14.45;9.65;;;;;;;;;;5017265;28;20120;-67
2023/04/08 11:17:50;;;;;;;13.43;10.15;;;;;;;;;;5050497;28;20041;-68
2023/04/08 11:20:17;;;;;;;19.50;10.95;;;;;;;;;;5034970;28;20037;-68
2023/04/08 11:22:47;;;;;;;22.02;11.10;;;;;;;;;;5024566;28;20506;-68
2023/04/08 11:25:13;;;;;;;16.90;11.07;;;;;;;;;;5045948;28;20132;-68
2023/04/08 11:27:39;;;;;;;13.95;8.95;;;;;;;;;;5046052;28;20111;-68
2023/04/08 11:30:06;;;;;;;15.40;10.15;;;;;;;;;;5009400;28;20095;-68
2023/04/08 11:32:34;;;;;;;14.77;10.73;;;;;;;;;;5037658;28;20053;-68
2023/04/08 11:35:01;;;;;;;12.85;9.38;;;;;;;;;;5045931;28;20525;-68
2023/04/08 11:37:35;;;;;;;13.80;10.45;;;;;;;;;;5030677;28;20331;-68
2023/04/08 11:40:01;;;;;;;12.60;9.48;;;;;;;;;;5022269;28;20084;-68
2023/04/08 11:42:28;;;;;;;13.63;9.95;;;;;;;;;;5031203;28;20037;-68
2023/04/08 11:44:54;;;;;;;18.05;11.23;;;7.80;99.90;;;;;;5033315;28;20467;-68
2023/04/08 11:47:21;;;;;;;17.83;11.68;;;;;;;;;;5055643;28;20072;-68
2023/04/08 11:49:47;;;;;;;18.80;11.35;;;;;;;;;;5031807;28;20041;-68
2023/04/08 11:52:14;;;;;;;18.70;11.75;;;;;;;;;;5032546;28;20090;-68
2023/04/08 11:54:41;;;;;;;17.50;10.93;;;;;;;;;;5049951;28;20072;-68
2023/04/08 11:57:11;;;;;;;25.58;13.27;;;;;;;;;;5047458;28;20132;-68
2023/04/08 11:59:37;;;;;;;22.23;12.85;;;;;;;;;;5026832;28;20049;-68
2023/04/08 12:02:03;;;;;;;20.23;13.32;;;;;;;;;;5040007;28;20044;-68
2023/04/08 12:04:29;;;;;;;19.85;12.85;;;;;;;;;;5030468;28;20041;-68
2023/04/08 12:06:56;;;;;;;22.05;13.70;;;;;;;;;;5028008;28;20053;-68
2023/04/08 12:09:22;;;;;;;20.60;14.63;;;;;;;;;;5037500;28;20059;-68
2023/04/08 12:11:48;;;;;;;26.20;15.63;;;;;;;;;;5044455;28;20042;-68
2023/04/08 12:14:14;;;;;;;23.15;14.80;;;;;;;;;;5033596;28;20464;-68
2023/04/08 12:16:41;;;;;;;25.58;16.70;;;;;;;;;;5026453;28;20037;-68
2023/04/08 12:19:07;;;;;;;28.42;17.73;;;;;;;;;;5051813;28;20430;-68
2023/04/08 12:21:33;;;;;;;26.35;16.33;;;;;;;;;;5032191;28;20033;-68
2023/04/08 12:24:00;;;;;;;25.00;15.10;;;;;;;;;;5051458;28;20366;-68
2023/04/08 12:26:26;;;;;;;24.67;14.10;;;;;;;;;;5049476;28;20120;-68
2023/04/08 12:28:52;;;;;;;23.63;15.50;;;;;;;;;;5034914;28;20078;-68
2023/04/08 12:31:18;;;;;;;22.95;15.52;;;;;;;;;;5032145;28;20087;-68
2023/04/08 12:33:44;;;;;;;25.27;16.15;;;;;;;;;;5049393;28;20044;-68
2023/04/08 12:36:11;;;;;;;25.58;16.10;;;;;;;;;;5030629;28;20482;-68
2023/04/08 12:38:37;;;;;;;24.10;15.48;;;;;;;;;;5048367;28;20044;-68
2023/04/08 12:41:03;;;;;;;22.05;14.05;;;;;;;;;;5017583;28;20072;-68
2023/04/08 12:43:31;;;;;;;24.30;15.30;;;;;;;;;;5012933;28;20052;-68
2023/04/08 12:45:57;;;;;;;23.05;15.93;;;;;;;;;;5050206;28;20281;-68
2023/04/08 12:48:23;;;;;;;21.38;13.55;;;;;;;;;;5035458;28;20364;-68
2023/04/08 12:50:50;;;;;;;22.83;15.35;;;;;;;;;;5049769;28;20428;-68
2023/04/08 12:53:16;;;;;;;22.83;15.35;;;;;;;;;;5049187;28;20063;-68
2023/04/08 12:55:42;;;;;;;19.67;13.43;;;;;;;;;;5049354;28;20041;-68
2023/04/08 12:58:08;;;;;;;26.85;15.93;;;8.50;99.90;;;;;;5044602;28;20562;-68
2023/04/08 13:00:36;;;;;;;19.95;13.88;;;8.90;99.90;;;;;;5027979;28;20089;-68
2023/04/08 13:03:03;;;;;;;23.90;14.35;;;8.90;99.90;;;;;;5029029;28;20037;-68
2023/04/08 13:05:29;;;;;;;27.85;15.52;;;8.90;99.90;;;;;;5028452;28;20480;-68
2023/04/08 13:07:55;;;;;;;21.92;15.02;;;8.90;99.90;;;;;;5029138;28;20038;-68
2023/04/08 13:10:20;;;;;;;22.52;15.25;;;9.00;99.90;;;;;;5031239;28;20068;-68
2023/04/08 13:12:46;;;;;;;21.40;14.82;;;8.90;99.90;;;;;;5033540;28;20152;-68
2023/04/08 13:15:12;;;;;;;20.63;14.05;;;8.90;99.90;;;;;;5029493;28;20092;-68
2023/04/08 13:17:38;;;;;;;22.45;14.25;;;9.00;99.90;;;;;;5024212;28;20033;-68
2023/04/08 13:20:05;;;;;;;23.10;14.60;;;9.00;99.90;;;;;;5035303;28;20053;-68
2023/04/08 13:22:32;;;;;;;21.65;14.05;;;9.00;99.90;;;;;;5032584;28;20774;-68
2023/04/08 13:24:58;;;;;;;21.40;13.95;;;9.00;99.90;;;;;;5031590;28;20087;-68
2023/04/08 13:27:24;;;;;;;21.35;14.25;;;9.10;99.90;;;;;;5022952;28;20041;-68
2023/04/08 13:29:49;;;;;;;22.65;14.73;;;9.00;99.90;;;;;;5027395;28;20043;-68
2023/04/08 13:32:15;;;;;;;20.23;12.73;;;9.00;99.90;;;;;;5029205;28;20476;-68
2023/04/08 13:34:41;;;;;;;19.88;13.65;;;9.10;99.90;;;;;;5031811;28;20082;-68
2023/04/08 13:37:07;;;;;;;20.27;13.40;;;9.00;99.90;;;;;;5024422;28;20042;-68
2023/04/08 13:39:33;;;;;;;24.55;13.77;;;9.00;99.90;;;;;;5027289;28;20038;-68
2023/04/08 13:41:58;;;;;;;20.15;12.93;;;9.00;99.90;;;;;;5034650;28;20454;-67
2023/04/08 13:44:24;;;;;;;22.83;12.95;;;9.00;99.90;;;;;;5028413;28;20049;-68
2023/04/08 13:46:50;;;;;;;14.57;11.38;;;9.10;99.90;;;;;;5021113;28;20487;-68
2023/04/08 13:49:16;;;;;;;22.33;14.48;;;9.00;99.90;;;;;;5030371;28;20088;-68
2023/04/08 13:51:41;;;;;;;20.83;13.88;;;9.10;99.90;;;;;;5034065;28;20037;-68
2023/04/08 13:54:07;;;;;;;22.23;12.82;;;9.10;99.90;;;;;;5028851;28;20046;-68
2023/04/08 13:56:33;;;;;;;20.58;12.43;;;9.10;99.90;;;;;;5029671;28;20052;-68
2023/04/08 13:58:59;;;;;;;22.52;13.23;;;9.10;99.90;;;;;;5028873;28;20053;-68
2023/04/08 14:01:24;;;;;;;15.88;11.50;;;9.10;99.90;;;;;;5029533;28;20032;-68